OAS9366 SKBO-SKCL
Flight info
| Callsign | OAS9366 |
|---|---|
| Flight time | 0h 33m |
| Altitude | 24000 |
| Route | KAMIS6A KAMIS W16 GIR R564 MANGA MANGA1B |
| Aircraft | A320/M-SDE3FGHIRWY/LB1 |
Departure
| Time | 2026-04-22 21:33 |
|---|---|
| Airport | El Dorado International Airport (SKBO) |
Arrival
| Time | 2026-04-22 22:06 |
|---|---|
| Airport | Alfonso Bonilla Aragon International Airport (SKCL) |
| Time | Latitude | Longitude | Altitude | Speed | Heading |
|---|---|---|---|---|---|
| 2026-04-22 21:12 | 4.69747 | -74.14471 | 8370 ft | 0 kts | 38° |
| 2026-04-22 21:21 | 4.69737 | -74.14479 | 8371 ft | 3 kts | 36° |
| 2026-04-22 21:21 | 4.69721 | -74.14490 | 8371 ft | 3 kts | 29° |
| 2026-04-22 21:21 | 4.69706 | -74.14497 | 8371 ft | 3 kts | 5° |
| 2026-04-22 21:22 | 4.69693 | -74.14496 | 8371 ft | 2 kts | 328° |
| 2026-04-22 21:22 | 4.69684 | -74.14490 | 8371 ft | 2 kts | 315° |
| 2026-04-22 21:22 | 4.69676 | -74.14482 | 8370 ft | 0 kts | 310° |
| 2026-04-22 21:25 | 4.69677 | -74.14482 | 8370 ft | 0 kts | 310° |
| 2026-04-22 21:25 | 4.69695 | -74.14504 | 8370 ft | 7 kts | 309° |
| 2026-04-22 21:25 | 4.69722 | -74.14543 | 8370 ft | 7 kts | 304° |
| 2026-04-22 21:25 | 4.69756 | -74.14591 | 8370 ft | 11 kts | 305° |
| 2026-04-22 21:26 | 4.69810 | -74.14660 | 8370 ft | 15 kts | 308° |
| 2026-04-22 21:26 | 4.69875 | -74.14746 | 8370 ft | 16 kts | 306° |
| 2026-04-22 21:26 | 4.69940 | -74.14839 | 8370 ft | 16 kts | 290° |
| 2026-04-22 21:26 | 4.69932 | -74.14940 | 8371 ft | 15 kts | 298° |
| 2026-04-22 21:27 | 4.69994 | -74.15023 | 8371 ft | 16 kts | 307° |
| 2026-04-22 21:27 | 4.70065 | -74.15115 | 8371 ft | 17 kts | 307° |
| 2026-04-22 21:27 | 4.70140 | -74.15215 | 8370 ft | 19 kts | 307° |
| 2026-04-22 21:27 | 4.70223 | -74.15325 | 8370 ft | 20 kts | 306° |
| 2026-04-22 21:28 | 4.70217 | -74.15444 | 8370 ft | 17 kts | 281° |
| 2026-04-22 21:28 | 4.70279 | -74.15539 | 8371 ft | 17 kts | 310° |
| 2026-04-22 21:28 | 4.70352 | -74.15632 | 8371 ft | 17 kts | 306° |
| 2026-04-22 21:28 | 4.70425 | -74.15730 | 8370 ft | 18 kts | 307° |
| 2026-04-22 21:29 | 4.70500 | -74.15830 | 8370 ft | 18 kts | 307° |
| 2026-04-22 21:29 | 4.70578 | -74.15931 | 8370 ft | 19 kts | 308° |
| 2026-04-22 21:29 | 4.70657 | -74.16035 | 8371 ft | 19 kts | 307° |
| 2026-04-22 21:29 | 4.70735 | -74.16141 | 8371 ft | 19 kts | 308° |
| 2026-04-22 21:30 | 4.70818 | -74.16248 | 8371 ft | 20 kts | 307° |
| 2026-04-22 21:30 | 4.70900 | -74.16358 | 8371 ft | 20 kts | 307° |
| 2026-04-22 21:30 | 4.70985 | -74.16469 | 8371 ft | 20 kts | 307° |
| 2026-04-22 21:30 | 4.71072 | -74.16584 | 8371 ft | 21 kts | 308° |
| 2026-04-22 21:31 | 4.71160 | -74.16699 | 8370 ft | 21 kts | 308° |
| 2026-04-22 21:31 | 4.71200 | -74.16779 | 8371 ft | 17 kts | 256° |
| 2026-04-22 21:31 | 4.71114 | -74.16860 | 8371 ft | 17 kts | 216° |
| 2026-04-22 21:31 | 4.71016 | -74.16860 | 8372 ft | 15 kts | 121° |
| 2026-04-22 21:32 | 4.70921 | -74.16739 | 8371 ft | 45 kts | 128° |
| 2026-04-22 21:32 | 4.70588 | -74.16298 | 8374 ft | 111 kts | 127° |
| 2026-04-22 21:32 | 4.70005 | -74.15526 | 8372 ft | 164 kts | 127° |
| 2026-04-22 21:32 | 4.69229 | -74.14505 | 8504 ft | 197 kts | 128° |
| 2026-04-22 21:33 | 4.68390 | -74.13387 | 9084 ft | 208 kts | 130° |
| 2026-04-22 21:33 | 4.67468 | -74.12202 | 9637 ft | 220 kts | 130° |
| 2026-04-22 21:33 | 4.66459 | -74.11021 | 10040 ft | 230 kts | 146° |
| 2026-04-22 21:33 | 4.64931 | -74.10511 | 10161 ft | 244 kts | 186° |
| 2026-04-22 21:34 | 4.63317 | -74.11119 | 10411 ft | 259 kts | 223° |
| 2026-04-22 21:34 | 4.62343 | -74.12644 | 10934 ft | 267 kts | 254° |
| 2026-04-22 21:34 | 4.62007 | -74.14492 | 11600 ft | 272 kts | 265° |
| 2026-04-22 21:34 | 4.61873 | -74.16401 | 12286 ft | 277 kts | 267° |
| 2026-04-22 21:35 | 4.61741 | -74.18336 | 12975 ft | 280 kts | 265° |
| 2026-04-22 21:35 | 4.61539 | -74.20289 | 13679 ft | 283 kts | 263° |
| 2026-04-22 21:35 | 4.61262 | -74.22252 | 14366 ft | 286 kts | 261° |
| 2026-04-22 21:35 | 4.60925 | -74.24225 | 15032 ft | 288 kts | 259° |
| 2026-04-22 21:36 | 4.60546 | -74.26207 | 15683 ft | 291 kts | 258° |
| 2026-04-22 21:36 | 4.59803 | -74.28101 | 16162 ft | 301 kts | 238° |
| 2026-04-22 21:36 | 4.58610 | -74.29911 | 16294 ft | 322 kts | 236° |
| 2026-04-22 21:36 | 4.57283 | -74.31810 | 16422 ft | 342 kts | 235° |
| 2026-04-22 21:37 | 4.55864 | -74.33803 | 16622 ft | 358 kts | 234° |
| 2026-04-22 21:37 | 4.54403 | -74.35855 | 17087 ft | 364 kts | 235° |
| 2026-04-22 21:37 | 4.52930 | -74.37940 | 17638 ft | 368 kts | 235° |
| 2026-04-22 21:37 | 4.51455 | -74.40047 | 18226 ft | 371 kts | 235° |
| 2026-04-22 21:38 | 4.49974 | -74.42178 | 18772 ft | 374 kts | 236° |
| 2026-04-22 21:38 | 4.48484 | -74.44329 | 19276 ft | 378 kts | 236° |
| 2026-04-22 21:38 | 4.46982 | -74.46505 | 19777 ft | 381 kts | 236° |
| 2026-04-22 21:38 | 4.45469 | -74.48698 | 20265 ft | 385 kts | 236° |
| 2026-04-22 21:39 | 4.43938 | -74.50911 | 20745 ft | 388 kts | 236° |
| 2026-04-22 21:39 | 4.42391 | -74.53141 | 21193 ft | 392 kts | 236° |
| 2026-04-22 21:39 | 4.40827 | -74.55392 | 21632 ft | 395 kts | 236° |
| 2026-04-22 21:39 | 4.39254 | -74.57664 | 22052 ft | 398 kts | 236° |
| 2026-04-22 21:40 | 4.37670 | -74.59953 | 22458 ft | 401 kts | 236° |
| 2026-04-22 21:40 | 4.36070 | -74.62264 | 22871 ft | 405 kts | 236° |
| 2026-04-22 21:40 | 4.34458 | -74.64588 | 23267 ft | 408 kts | 236° |
| 2026-04-22 21:40 | 4.32830 | -74.66928 | 23662 ft | 411 kts | 236° |
| 2026-04-22 21:41 | 4.31189 | -74.69279 | 23969 ft | 414 kts | 236° |
| 2026-04-22 21:41 | 4.29551 | -74.71628 | 24023 ft | 404 kts | 236° |
| 2026-04-22 21:41 | 4.27969 | -74.73904 | 24018 ft | 395 kts | 236° |
| 2026-04-22 21:41 | 4.26406 | -74.76156 | 24012 ft | 392 kts | 236° |
| 2026-04-22 21:42 | 4.24856 | -74.78401 | 24006 ft | 392 kts | 237° |
| 2026-04-22 21:42 | 4.23311 | -74.80644 | 23998 ft | 391 kts | 237° |
| 2026-04-22 21:42 | 4.21761 | -74.82890 | 23997 ft | 391 kts | 236° |
| 2026-04-22 21:42 | 4.20213 | -74.85130 | 23989 ft | 391 kts | 237° |
| 2026-04-22 21:43 | 4.18771 | -74.87433 | 23991 ft | 390 kts | 244° |
| 2026-04-22 21:43 | 4.17533 | -74.89853 | 23980 ft | 390 kts | 244° |
| 2026-04-22 21:43 | 4.16297 | -74.92269 | 23980 ft | 390 kts | 244° |
| 2026-04-22 21:43 | 4.15060 | -74.94687 | 23979 ft | 390 kts | 244° |
| 2026-04-22 21:44 | 4.13824 | -74.97103 | 23977 ft | 390 kts | 244° |
| 2026-04-22 21:44 | 4.12588 | -74.99511 | 23977 ft | 389 kts | 244° |
| 2026-04-22 21:44 | 4.11349 | -75.01929 | 23975 ft | 389 kts | 244° |
| 2026-04-22 21:44 | 4.10114 | -75.04339 | 23974 ft | 389 kts | 244° |
| 2026-04-22 21:45 | 4.08877 | -75.06752 | 23971 ft | 389 kts | 244° |
| 2026-04-22 21:45 | 4.07642 | -75.09160 | 23971 ft | 389 kts | 244° |
| 2026-04-22 21:45 | 4.06405 | -75.11569 | 23968 ft | 389 kts | 244° |
| 2026-04-22 21:45 | 4.05171 | -75.13976 | 23965 ft | 389 kts | 244° |
| 2026-04-22 21:46 | 4.03937 | -75.16385 | 23957 ft | 388 kts | 244° |
| 2026-04-22 21:46 | 4.02706 | -75.18786 | 23952 ft | 387 kts | 244° |
| 2026-04-22 21:46 | 4.01475 | -75.21186 | 23943 ft | 387 kts | 244° |
| 2026-04-22 21:46 | 4.00244 | -75.23585 | 23948 ft | 387 kts | 244° |
| 2026-04-22 21:47 | 3.99014 | -75.25982 | 23968 ft | 387 kts | 244° |
| 2026-04-22 21:47 | 3.97784 | -75.28377 | 23967 ft | 387 kts | 244° |
| 2026-04-22 21:47 | 3.96555 | -75.30774 | 23963 ft | 387 kts | 244° |
| 2026-04-22 21:47 | 3.95328 | -75.33170 | 23951 ft | 387 kts | 244° |
| 2026-04-22 21:48 | 3.94100 | -75.35566 | 23957 ft | 386 kts | 244° |
| 2026-04-22 21:48 | 3.92872 | -75.37957 | 23953 ft | 386 kts | 244° |
| 2026-04-22 21:48 | 3.91642 | -75.40351 | 23955 ft | 386 kts | 244° |
| 2026-04-22 21:48 | 3.90412 | -75.42744 | 23955 ft | 387 kts | 244° |
| 2026-04-22 21:49 | 3.89184 | -75.45138 | 23948 ft | 386 kts | 244° |
| 2026-04-22 21:49 | 3.87956 | -75.47531 | 23946 ft | 386 kts | 244° |
| 2026-04-22 21:49 | 3.86728 | -75.49923 | 23956 ft | 386 kts | 244° |
| 2026-04-22 21:49 | 3.85502 | -75.52313 | 23945 ft | 385 kts | 244° |
| 2026-04-22 21:50 | 3.84277 | -75.54700 | 23951 ft | 385 kts | 243° |
| 2026-04-22 21:50 | 3.83050 | -75.57090 | 23952 ft | 386 kts | 243° |
| 2026-04-22 21:50 | 3.81821 | -75.59480 | 23944 ft | 386 kts | 243° |
| 2026-04-22 21:50 | 3.80592 | -75.61870 | 23953 ft | 386 kts | 243° |
| 2026-04-22 21:51 | 3.79366 | -75.64259 | 23942 ft | 386 kts | 243° |
| 2026-04-22 21:51 | 3.78139 | -75.66651 | 23953 ft | 386 kts | 243° |
| 2026-04-22 21:51 | 3.76912 | -75.69041 | 23949 ft | 386 kts | 243° |
| 2026-04-22 21:52 | 3.74457 | -75.73818 | 23979 ft | 385 kts | 243° |
| 2026-04-22 21:52 | 3.73244 | -75.76172 | 23976 ft | 388 kts | 243° |
| 2026-04-22 21:52 | 3.71969 | -75.78651 | 23961 ft | 402 kts | 244° |
| 2026-04-22 21:52 | 3.70700 | -75.81125 | 23962 ft | 407 kts | 243° |
| 2026-04-22 21:53 | 3.69406 | -75.83648 | 23966 ft | 408 kts | 243° |
| 2026-04-22 21:53 | 3.68111 | -75.86174 | 23964 ft | 408 kts | 243° |
| 2026-04-22 21:53 | 3.66816 | -75.88703 | 23964 ft | 408 kts | 244° |
| 2026-04-22 21:53 | 3.65524 | -75.91233 | 23966 ft | 408 kts | 243° |
| 2026-04-22 21:54 | 3.64263 | -75.93699 | 23975 ft | 408 kts | 243° |
| 2026-04-22 21:54 | 3.62967 | -75.96228 | 23960 ft | 408 kts | 243° |
| 2026-04-22 21:54 | 3.61669 | -75.98756 | 23972 ft | 407 kts | 243° |
| 2026-04-22 21:54 | 3.60399 | -76.01229 | 23623 ft | 392 kts | 243° |
| 2026-04-22 21:55 | 3.59168 | -76.03631 | 22893 ft | 385 kts | 243° |
| 2026-04-22 21:55 | 3.57956 | -76.06000 | 22111 ft | 380 kts | 243° |
| 2026-04-22 21:55 | 3.56759 | -76.08343 | 21358 ft | 376 kts | 243° |
| 2026-04-22 21:55 | 3.55575 | -76.10655 | 20583 ft | 371 kts | 243° |
| 2026-04-22 21:56 | 3.54401 | -76.12937 | 19839 ft | 367 kts | 243° |
| 2026-04-22 21:56 | 3.53234 | -76.15194 | 19103 ft | 363 kts | 243° |
| 2026-04-22 21:56 | 3.52076 | -76.17427 | 18374 ft | 359 kts | 243° |
| 2026-04-22 21:56 | 3.50932 | -76.19637 | 17639 ft | 356 kts | 243° |
| 2026-04-22 21:57 | 3.49801 | -76.21822 | 16919 ft | 352 kts | 243° |
| 2026-04-22 21:57 | 3.48682 | -76.23985 | 16211 ft | 348 kts | 243° |
| 2026-04-22 21:57 | 3.47561 | -76.26111 | 15506 ft | 344 kts | 239° |
| 2026-04-22 21:57 | 3.46002 | -76.27889 | 14826 ft | 339 kts | 217° |
| 2026-04-22 21:58 | 3.43906 | -76.28920 | 14139 ft | 336 kts | 194° |
| 2026-04-22 21:58 | 3.41593 | -76.29091 | 13430 ft | 334 kts | 177° |
| 2026-04-22 21:58 | 3.39278 | -76.29053 | 12689 ft | 332 kts | 184° |
| 2026-04-22 21:58 | 3.37007 | -76.29389 | 11988 ft | 328 kts | 195° |
| 2026-04-22 21:59 | 3.34876 | -76.30148 | 11305 ft | 324 kts | 206° |
| 2026-04-22 21:59 | 3.32955 | -76.31314 | 10480 ft | 324 kts | 218° |
| 2026-04-22 21:59 | 3.31308 | -76.32855 | 9652 ft | 325 kts | 230° |
| 2026-04-22 21:59 | 3.30031 | -76.34651 | 9349 ft | 307 kts | 241° |
| 2026-04-22 22:00 | 3.29140 | -76.36511 | 9217 ft | 286 kts | 250° |
| 2026-04-22 22:00 | 3.28598 | -76.38356 | 9088 ft | 267 kts | 259° |
| 2026-04-22 22:00 | 3.28393 | -76.40157 | 8859 ft | 258 kts | 276° |
| 2026-04-22 22:00 | 3.28968 | -76.41810 | 8331 ft | 253 kts | 304° |
| 2026-04-22 22:01 | 3.30190 | -76.43082 | 7665 ft | 257 kts | 328° |
| 2026-04-22 22:01 | 3.31860 | -76.43704 | 7042 ft | 259 kts | 355° |
| 2026-04-22 22:01 | 3.33612 | -76.43503 | 6670 ft | 250 kts | 21° |
| 2026-04-22 22:01 | 3.35055 | -76.42610 | 6396 ft | 240 kts | 42° |
| 2026-04-22 22:02 | 3.36311 | -76.41562 | 6145 ft | 230 kts | 30° |
| 2026-04-22 22:02 | 3.37775 | -76.41031 | 5942 ft | 220 kts | 12° |
| 2026-04-22 22:02 | 3.39265 | -76.40767 | 5827 ft | 215 kts | 9° |
| 2026-04-22 22:02 | 3.40715 | -76.40526 | 5596 ft | 209 kts | 9° |
| 2026-04-22 22:03 | 3.42133 | -76.40282 | 5326 ft | 204 kts | 9° |
| 2026-04-22 22:03 | 3.43511 | -76.40044 | 5070 ft | 196 kts | 8° |
| 2026-04-22 22:03 | 3.44802 | -76.39818 | 4800 ft | 181 kts | 8° |
| 2026-04-22 22:03 | 3.46004 | -76.39610 | 4578 ft | 169 kts | 8° |
| 2026-04-22 22:04 | 3.47106 | -76.39419 | 4341 ft | 154 kts | 7° |
| 2026-04-22 22:04 | 3.48137 | -76.39240 | 4157 ft | 148 kts | 6° |
| 2026-04-22 22:04 | 3.49137 | -76.39067 | 3961 ft | 145 kts | 7° |
| 2026-04-22 22:04 | 3.50124 | -76.38896 | 3770 ft | 144 kts | 7° |
| 2026-04-22 22:05 | 3.51116 | -76.38723 | 3573 ft | 145 kts | 7° |
| 2026-04-22 22:05 | 3.52108 | -76.38545 | 3363 ft | 145 kts | 7° |
| 2026-04-22 22:05 | 3.53102 | -76.38380 | 3197 ft | 145 kts | 8° |
| 2026-04-22 22:05 | 3.54035 | -76.38231 | 3167 ft | 113 kts | 11° |
| 2026-04-22 22:06 | 3.54521 | -76.38134 | 3165 ft | 38 kts | 10° |
| 2026-04-22 22:06 | 3.54600 | -76.38178 | 3165 ft | 8 kts | 272° |
| 2026-04-22 22:06 | 3.54608 | -76.38234 | 3166 ft | 8 kts | 279° |
| 2026-04-22 22:06 | 3.54595 | -76.38274 | 3167 ft | 6 kts | 222° |
| 2026-04-22 22:07 | 3.54563 | -76.38289 | 3167 ft | 7 kts | 198° |
| 2026-04-22 22:07 | 3.54511 | -76.38296 | 3166 ft | 7 kts | 187° |
| 2026-04-22 22:07 | 3.54447 | -76.38308 | 3165 ft | 14 kts | 192° |
| 2026-04-22 22:07 | 3.54334 | -76.38327 | 3165 ft | 17 kts | 190° |
| 2026-04-22 22:08 | 3.54212 | -76.38350 | 3164 ft | 18 kts | 190° |
| 2026-04-22 22:08 | 3.54084 | -76.38381 | 3164 ft | 19 kts | 213° |
| 2026-04-22 22:08 | 3.53977 | -76.38472 | 3163 ft | 21 kts | 220° |
| 2026-04-22 22:08 | 3.53862 | -76.38569 | 3162 ft | 23 kts | 220° |
| 2026-04-22 22:09 | 3.53753 | -76.38632 | 3162 ft | 14 kts | 189° |
| 2026-04-22 22:09 | 3.53729 | -76.38637 | 3162 ft | 0 kts | 190° |